createdAt,value
2018-11-12T00:00:18.234Z,94.17
2018-11-12T00:01:24.770Z,94.12
2018-11-12T00:02:30.248Z,93.55
2018-11-12T00:03:35.777Z,93.93
2018-11-12T00:04:40.280Z,94.02
2018-11-12T00:05:46.812Z,92.79
2018-11-12T00:06:52.319Z,93.02
2018-11-12T00:07:57.817Z,93.16
2018-11-12T00:09:02.322Z,93.84
2018-11-12T00:10:08.842Z,93.79
2018-11-12T00:11:14.354Z,93.55
2018-11-12T00:12:19.872Z,93.50
2018-11-12T00:13:24.356Z,93.79
2018-11-12T00:14:31.666Z,93.55
2018-11-12T00:15:36.400Z,93.70
2018-11-12T00:16:41.902Z,93.65
2018-11-12T00:17:46.417Z,93.70
2018-11-12T00:18:52.943Z,93.65
2018-11-12T00:19:58.443Z,94.02
2018-11-12T00:21:03.962Z,93.50
2018-11-12T00:22:08.467Z,93.55
2018-11-12T00:23:14.986Z,93.50
2018-11-12T00:24:20.497Z,93.60
2018-11-12T00:25:26.051Z,93.41
2018-11-12T00:26:30.499Z,93.98
2018-11-12T00:27:37.027Z,93.60
2018-11-12T00:28:42.534Z,93.79
2018-11-12T00:29:48.644Z,93.70
2018-11-12T00:30:52.565Z,93.31
2018-11-12T00:31:59.082Z,93.50
2018-11-12T00:33:04.577Z,93.55
2018-11-12T00:34:10.108Z,93.79
2018-11-12T00:35:14.612Z,93.65
2018-11-12T00:36:22.100Z,93.50
2018-11-12T00:37:26.619Z,93.60
2018-11-12T00:38:32.136Z,93.50
2018-11-12T00:39:36.657Z,93.31
2018-11-12T00:40:43.158Z,93.60
2018-11-12T00:41:48.682Z,93.50
2018-11-12T00:42:54.192Z,93.12
2018-11-12T00:43:58.684Z,92.93
2018-11-12T00:45:05.232Z,93.21
2018-11-12T00:46:10.723Z,93.79
2018-11-12T00:47:16.229Z,93.50
2018-11-12T00:48:20.740Z,92.83
2018-11-12T00:49:27.258Z,93.50
2018-11-12T00:50:32.768Z,93.50
2018-11-12T00:51:39.152Z,93.70
2018-11-12T00:52:42.795Z,93.79
2018-11-12T00:53:49.312Z,92.74
2018-11-12T00:54:54.822Z,92.55
2018-11-12T00:56:00.350Z,92.83
2018-11-12T00:57:05.548Z,92.55
2018-11-12T00:58:11.357Z,92.74
2018-11-12T00:59:16.885Z,93.21
2018-11-12T01:00:22.371Z,93.31
2018-11-12T01:01:26.879Z,93.12
2018-11-12T01:02:33.384Z,93.88
2018-11-12T01:03:38.916Z,93.12
2018-11-12T01:04:44.442Z,92.45
2018-11-12T01:05:48.926Z,92.83
2018-11-12T01:06:55.456Z,93.02
2018-11-12T01:08:00.956Z,93.79
2018-11-12T01:09:06.461Z,93.79
2018-11-12T01:10:10.990Z,93.88
2018-11-12T01:11:17.488Z,93.60
2018-11-12T01:12:22.993Z,93.60
2018-11-12T01:13:28.516Z,93.79
2018-11-12T01:14:33.029Z,93.79
2018-11-12T01:15:39.529Z,93.88
2018-11-12T01:16:45.050Z,93.31
2018-11-12T01:17:50.553Z,93.70
2018-11-12T01:18:55.058Z,93.70
2018-11-12T01:20:01.582Z,93.60
2018-11-12T01:21:07.096Z,93.60
2018-11-12T01:22:12.612Z,93.88
2018-11-12T01:23:17.113Z,93.60
2018-11-12T01:24:23.626Z,93.60
2018-11-12T01:25:29.145Z,93.98
2018-11-12T01:26:34.654Z,93.60
2018-11-12T01:27:39.163Z,93.60
2018-11-12T01:28:45.668Z,94.07
2018-11-12T01:29:51.189Z,93.79
2018-11-12T01:30:56.694Z,93.79
2018-11-12T01:32:01.192Z,93.88
2018-11-12T01:33:07.722Z,93.60
2018-11-12T01:34:13.248Z,93.79
2018-11-12T01:35:18.744Z,93.88
2018-11-12T01:36:23.236Z,94.36
2018-11-12T01:37:29.760Z,94.17
2018-11-12T01:38:35.304Z,94.55
2018-11-12T01:39:40.785Z,94.55
2018-11-12T01:40:45.289Z,94.46
2018-11-12T01:41:51.869Z,94.74
2018-11-12T01:42:57.334Z,94.55
2018-11-12T01:44:02.837Z,94.36
2018-11-12T01:45:07.329Z,94.55
2018-11-12T01:46:13.867Z,94.93
2018-11-12T01:47:19.367Z,94.55
2018-11-12T01:48:24.884Z,94.36
2018-11-12T01:49:29.380Z,94.65
2018-11-12T01:50:35.905Z,95.03
2018-11-12T01:51:41.410Z,95.22
2018-11-12T01:52:46.929Z,95.32
2018-11-12T01:53:51.419Z,94.55
2018-11-12T01:54:57.951Z,95.22
2018-11-12T01:56:03.459Z,95.41
2018-11-12T01:57:08.979Z,94.55
2018-11-12T01:58:13.490Z,94.65
2018-11-12T01:59:19.991Z,95.12
2018-11-12T02:00:25.520Z,95.03
2018-11-12T02:01:31.014Z,95.03
2018-11-12T02:02:35.522Z,95.12
2018-11-12T02:03:42.037Z,95.22
2018-11-12T02:04:47.590Z,95.03
2018-11-12T02:05:53.058Z,95.22
2018-11-12T02:06:57.607Z,94.36
2018-11-12T02:08:04.092Z,95.22
2018-11-12T02:09:09.733Z,94.36
2018-11-12T02:10:15.107Z,94.36
2018-11-12T02:11:19.602Z,94.55
2018-11-12T02:12:26.121Z,94.46
2018-11-12T02:13:31.650Z,94.17
2018-11-12T02:14:37.211Z,94.55
2018-11-12T02:15:41.681Z,94.36
2018-11-12T02:16:48.188Z,93.50
2018-11-12T02:17:53.691Z,93.79
2018-11-12T02:18:59.196Z,93.41
2018-11-12T02:20:03.701Z,94.07
2018-11-12T02:21:10.232Z,94.17
2018-11-12T02:22:15.728Z,93.98
2018-11-12T02:23:21.244Z,94.17
2018-11-12T02:24:25.753Z,94.41
2018-11-12T02:25:32.279Z,94.17
2018-11-12T02:26:37.799Z,93.93
2018-11-12T02:27:43.292Z,94.27
2018-11-12T02:28:47.790Z,94.41
2018-11-12T02:29:54.313Z,93.45
2018-11-12T02:30:59.845Z,93.07
2018-11-12T02:32:05.331Z,93.55
2018-11-12T02:33:09.850Z,94.22
2018-11-12T02:34:16.352Z,94.22
2018-11-12T02:35:21.890Z,94.31
2018-11-12T02:36:27.381Z,94.41
2018-11-12T02:37:31.897Z,94.41
2018-11-12T02:38:38.406Z,93.65
2018-11-12T02:39:43.926Z,93.55
2018-11-12T02:40:49.432Z,94.22
2018-11-12T02:41:53.934Z,94.02
2018-11-12T02:43:00.464Z,94.22
2018-11-12T02:44:05.976Z,94.41
2018-11-12T02:45:11.504Z,94.31
2018-11-12T02:46:15.982Z,94.70
2018-11-12T02:47:22.503Z,94.60
2018-11-12T02:48:28.025Z,94.89
2018-11-12T02:49:33.508Z,94.51
2018-11-12T02:50:38.048Z,94.22
2018-11-12T02:51:44.547Z,94.12
2018-11-12T02:52:50.052Z,94.22
2018-11-12T02:53:55.571Z,94.41
2018-11-12T02:55:00.077Z,94.22
2018-11-12T02:56:06.606Z,94.31
2018-11-12T02:57:12.130Z,94.51
2018-11-12T02:58:17.614Z,94.60
2018-11-12T02:59:22.113Z,94.41
2018-11-12T03:00:28.647Z,94.51
2018-11-12T03:01:34.164Z,94.41
2018-11-12T03:02:39.673Z,94.41
2018-11-12T03:03:44.178Z,94.41
2018-11-12T03:04:50.693Z,94.60
2018-11-12T03:05:56.193Z,94.22
2018-11-12T03:07:01.728Z,94.36
2018-11-12T03:08:06.212Z,94.22
2018-11-12T03:09:12.759Z,94.79
2018-11-12T03:10:18.260Z,94.79
2018-11-12T03:11:23.755Z,94.41
2018-11-12T03:12:28.265Z,94.60
2018-11-12T03:13:34.791Z,94.41
2018-11-12T03:14:40.300Z,94.51
2018-11-12T03:15:45.807Z,94.41
2018-11-12T03:16:50.306Z,94.60
2018-11-12T03:17:56.821Z,94.60
2018-11-12T03:19:02.340Z,94.02
2018-11-12T03:20:07.848Z,94.22
2018-11-12T03:21:12.355Z,94.60
2018-11-12T03:22:18.866Z,94.02
2018-11-12T03:23:24.384Z,94.12
2018-11-12T03:24:29.903Z,94.41
2018-11-12T03:25:34.395Z,94.41
2018-11-12T03:26:40.930Z,94.41
2018-11-12T03:27:46.464Z,93.93
2018-11-12T03:28:51.950Z,94.22
2018-11-12T03:29:56.440Z,94.02
2018-11-12T03:31:02.984Z,94.51
2018-11-12T03:32:08.490Z,94.60
2018-11-12T03:33:13.999Z,94.02
2018-11-12T03:34:18.514Z,94.41
2018-11-12T03:35:25.048Z,93.93
2018-11-12T03:36:30.531Z,94.02
2018-11-12T03:37:36.030Z,94.12
2018-11-12T03:38:40.541Z,94.60
2018-11-12T03:39:47.133Z,94.22
2018-11-12T03:40:52.565Z,94.22
2018-11-12T03:41:58.088Z,94.51
2018-11-12T03:43:02.582Z,94.02
2018-11-12T03:44:09.115Z,94.51
2018-11-12T03:45:14.612Z,94.41
2018-11-12T03:46:20.130Z,94.22
2018-11-12T03:47:24.628Z,94.79
2018-11-12T03:48:31.161Z,94.70
2018-11-12T03:49:36.678Z,95.17
2018-11-12T03:50:42.174Z,94.51
2018-11-12T03:51:46.683Z,94.70
2018-11-12T03:52:53.213Z,94.60
2018-11-12T03:53:58.717Z,94.70
2018-11-12T03:55:04.226Z,94.41
2018-11-12T03:56:08.738Z,94.31
2018-11-12T03:57:15.257Z,94.60
2018-11-12T03:58:20.761Z,94.60
2018-11-12T03:59:26.270Z,94.51
2018-11-12T04:00:30.879Z,94.22
2018-11-12T04:01:37.309Z,93.84
2018-11-12T04:02:42.815Z,94.31
2018-11-12T04:03:48.326Z,94.02
2018-11-12T04:04:52.826Z,93.84
2018-11-12T04:05:59.370Z,93.84
2018-11-12T04:07:04.870Z,93.84
2018-11-12T04:08:10.362Z,93.88
2018-11-12T04:09:14.871Z,93.98
2018-11-12T04:10:21.390Z,93.50
2018-11-12T04:11:26.905Z,93.60
2018-11-12T04:12:32.416Z,93.60
2018-11-12T04:13:36.915Z,93.88
2018-11-12T04:14:43.439Z,93.60
2018-11-12T04:15:48.952Z,93.69
2018-11-12T04:16:54.472Z,93.69
2018-11-12T04:17:58.980Z,93.69
2018-11-12T04:19:05.496Z,93.74
2018-11-12T04:20:10.996Z,93.69
2018-11-12T04:21:16.511Z,93.12
2018-11-12T04:22:21.022Z,93.88
2018-11-12T04:23:27.563Z,93.69
2018-11-12T04:24:33.057Z,93.69
2018-11-12T04:25:38.556Z,93.88
2018-11-12T04:26:43.054Z,93.50
2018-11-12T04:27:49.580Z,93.40
2018-11-12T04:28:55.100Z,93.60
2018-11-12T04:30:00.633Z,93.60
2018-11-12T04:31:05.106Z,93.69
2018-11-12T04:32:11.643Z,93.98
2018-11-12T04:33:17.138Z,93.69
2018-11-12T04:34:22.651Z,93.69
2018-11-12T04:35:27.154Z,93.88
2018-11-12T04:36:33.695Z,93.88
2018-11-12T04:37:39.197Z,93.88
2018-11-12T04:38:44.704Z,93.69
2018-11-12T04:39:49.195Z,93.50
2018-11-12T04:40:55.730Z,93.79
2018-11-12T04:42:01.248Z,93.69
2018-11-12T04:43:06.750Z,93.69
2018-11-12T04:44:11.253Z,93.50
2018-11-12T04:45:17.776Z,93.69
2018-11-12T04:46:23.295Z,93.50
2018-11-12T04:47:28.796Z,94.26
2018-11-12T04:48:33.304Z,93.88
2018-11-12T04:49:39.828Z,93.98
2018-11-12T04:50:45.388Z,93.60
2018-11-12T04:51:50.838Z,93.74
2018-11-12T04:52:55.350Z,93.50
2018-11-12T04:54:01.874Z,93.79
2018-11-12T04:55:07.422Z,94.26
2018-11-12T04:56:12.892Z,94.41
2018-11-12T04:57:17.400Z,94.41
2018-11-12T04:58:23.911Z,94.02
2018-11-12T04:59:29.437Z,94.41
2018-11-12T05:00:34.948Z,94.60
2018-11-12T05:01:39.454Z,94.22
2018-11-12T05:02:45.976Z,94.51
2018-11-12T05:03:51.478Z,95.27
2018-11-12T05:04:56.989Z,94.89
2018-11-12T05:06:01.490Z,94.70
2018-11-12T05:07:08.020Z,94.70
2018-11-12T05:08:13.523Z,95.17
2018-11-12T05:09:19.039Z,94.89
2018-11-12T05:10:23.541Z,94.70
2018-11-12T05:11:30.072Z,94.70
2018-11-12T05:12:35.583Z,94.98
2018-11-12T05:13:41.087Z,95.36
2018-11-12T05:14:45.581Z,94.98
2018-11-12T05:15:52.123Z,95.32
2018-11-12T05:16:57.642Z,95.32
2018-11-12T05:18:03.149Z,95.22
2018-11-12T05:19:07.629Z,95.17
2018-11-12T05:20:14.154Z,95.46
2018-11-12T05:21:19.677Z,95.22
2018-11-12T05:22:25.174Z,95.27
2018-11-12T05:23:29.677Z,95.03
2018-11-12T05:24:36.202Z,95.27
2018-11-12T05:25:41.738Z,95.17
2018-11-12T05:26:47.228Z,95.27
2018-11-12T05:27:51.736Z,95.75
2018-11-12T05:28:58.265Z,95.89
2018-11-12T05:30:03.772Z,95.79
2018-11-12T05:31:09.270Z,95.84
2018-11-12T05:32:13.790Z,95.70
2018-11-12T05:33:20.305Z,95.41
2018-11-12T05:34:25.825Z,95.17
2018-11-12T05:35:31.335Z,94.98
2018-11-12T05:36:35.833Z,95.75
2018-11-12T05:37:42.420Z,95.17
2018-11-12T05:38:47.870Z,95.32
2018-11-12T05:39:53.376Z,95.65
2018-11-12T05:40:57.889Z,95.75
2018-11-12T05:42:04.405Z,95.94
2018-11-12T05:43:09.904Z,95.46
2018-11-12T05:44:15.426Z,95.65
2018-11-12T05:45:19.942Z,95.51
2018-11-12T05:46:26.447Z,96.22
2018-11-12T05:47:31.969Z,96.13
2018-11-12T05:48:37.476Z,96.03
2018-11-12T05:49:41.971Z,96.13
2018-11-12T05:50:48.495Z,95.84
2018-11-12T05:51:54.002Z,95.94
2018-11-12T05:52:59.535Z,96.03
2018-11-12T05:54:04.022Z,96.22
2018-11-12T05:55:10.541Z,96.22
2018-11-12T05:56:16.058Z,96.03
2018-11-12T05:57:21.559Z,96.32
2018-11-12T05:58:26.073Z,95.84
2018-11-12T05:59:32.589Z,96.32
2018-11-12T06:00:38.097Z,96.13
2018-11-12T06:01:43.612Z,96.51
2018-11-12T06:02:48.110Z,96.61
2018-11-12T06:03:54.648Z,96.70
2018-11-12T06:05:00.199Z,96.89
2018-11-12T06:06:05.659Z,96.51
2018-11-12T06:07:10.161Z,96.22
2018-11-12T06:08:16.696Z,96.99
2018-11-12T06:09:22.199Z,96.70
2018-11-12T06:10:27.714Z,96.80
2018-11-12T06:11:32.208Z,97.08
2018-11-12T06:12:38.734Z,97.28
2018-11-12T06:13:44.263Z,97.28
2018-11-12T06:14:49.763Z,97.28
2018-11-12T06:15:54.265Z,97.37
2018-11-12T06:17:00.791Z,97.08
2018-11-12T06:18:06.366Z,97.18
2018-11-12T06:19:11.815Z,97.47
2018-11-12T06:20:16.317Z,97.37
2018-11-12T06:21:22.828Z,97.28
2018-11-12T06:22:28.406Z,97.08
2018-11-12T06:23:33.853Z,97.18
2018-11-12T06:24:38.351Z,97.18
2018-11-12T06:25:44.885Z,96.89
2018-11-12T06:26:50.393Z,97.18
2018-11-12T06:27:55.897Z,97.37
2018-11-12T06:29:00.405Z,97.37
2018-11-12T06:30:06.925Z,97.37
2018-11-12T06:31:12.488Z,97.37
2018-11-12T06:32:17.947Z,97.75
2018-11-12T06:33:22.454Z,97.75
2018-11-12T06:34:29.000Z,97.37
2018-11-12T06:35:34.491Z,97.47
2018-11-12T06:36:40.020Z,97.47
2018-11-12T06:37:44.508Z,97.37
2018-11-12T06:38:51.030Z,97.75
2018-11-12T06:39:56.558Z,98.23
2018-11-12T06:41:02.049Z,98.52
2018-11-12T06:42:06.549Z,97.94
2018-11-12T06:43:13.086Z,98.42
2018-11-12T06:44:18.580Z,97.56
2018-11-12T06:45:24.087Z,98.33
2018-11-12T06:46:28.595Z,98.04
2018-11-12T06:47:35.109Z,98.42
2018-11-12T06:48:40.622Z,97.66
2018-11-12T06:49:46.155Z,97.56
2018-11-12T06:50:50.648Z,97.94
2018-11-12T06:51:57.174Z,97.75
2018-11-12T06:53:02.785Z,96.99
2018-11-12T06:54:08.184Z,97.75
2018-11-12T06:55:12.692Z,97.56
2018-11-12T06:56:19.221Z,98.52
2018-11-12T06:57:24.740Z,98.33
2018-11-12T06:58:30.250Z,97.94
2018-11-12T06:59:34.735Z,97.85
2018-11-12T07:00:41.276Z,97.75
2018-11-12T07:01:46.774Z,97.75
2018-11-12T07:02:52.295Z,98.04
2018-11-12T07:03:56.820Z,98.13
2018-11-12T07:05:03.300Z,97.75
2018-11-12T07:06:08.830Z,97.75
2018-11-12T07:07:14.340Z,97.75
2018-11-12T07:08:18.836Z,97.85
2018-11-12T07:09:25.362Z,98.13
2018-11-12T07:10:30.873Z,97.94
2018-11-12T07:11:36.381Z,98.04
2018-11-12T07:12:40.877Z,98.13
2018-11-12T07:13:47.425Z,98.33
2018-11-12T07:14:52.922Z,98.23
2018-11-12T07:15:58.446Z,98.04
2018-11-12T07:17:02.932Z,97.85
2018-11-12T07:18:09.447Z,97.75
2018-11-12T07:19:14.963Z,97.94
2018-11-12T07:20:20.496Z,97.94
2018-11-12T07:21:24.969Z,97.94
2018-11-12T07:22:31.520Z,98.23
2018-11-12T07:23:37.010Z,98.23
2018-11-12T07:24:42.535Z,98.42
2018-11-12T07:25:47.034Z,98.23
2018-11-12T07:26:53.561Z,98.13
2018-11-12T07:27:59.073Z,98.33
2018-11-12T07:29:04.584Z,98.61
2018-11-12T07:30:09.089Z,98.33
2018-11-12T07:31:15.681Z,98.42
2018-11-12T07:32:21.108Z,98.61
2018-11-12T07:33:26.616Z,98.33
2018-11-12T07:34:31.123Z,98.33
2018-11-12T07:35:37.642Z,98.52
2018-11-12T07:36:43.150Z,98.52
2018-11-12T07:37:48.667Z,98.52
2018-11-12T07:38:53.161Z,98.52
2018-11-12T07:39:59.709Z,98.42
2018-11-12T07:41:05.212Z,98.23
2018-11-12T07:42:10.819Z,97.75
2018-11-12T07:43:15.226Z,97.94
2018-11-12T07:44:21.735Z,97.94
2018-11-12T07:45:27.252Z,97.94
2018-11-12T07:46:32.782Z,97.75
2018-11-12T07:47:37.289Z,97.56
2018-11-12T07:48:43.810Z,97.75
2018-11-12T07:49:49.301Z,98.33
2018-11-12T07:50:54.833Z,98.42
2018-11-12T07:51:59.336Z,98.71
2018-11-12T07:53:05.828Z,98.42
2018-11-12T07:54:11.346Z,98.52
2018-11-12T07:55:16.852Z,98.71
2018-11-12T07:56:21.462Z,98.75
2018-11-12T07:57:27.877Z,98.38
2018-11-12T07:58:33.402Z,97.75
2018-11-12T07:59:38.911Z,97.71
2018-11-12T08:00:43.415Z,97.99
2018-11-12T08:01:49.970Z,98.09
2018-11-12T08:02:55.519Z,98.09
2018-11-12T08:04:00.951Z,97.99
2018-11-12T08:05:05.457Z,97.90
2018-11-12T08:06:11.988Z,98.28
2018-11-12T08:07:17.485Z,97.90
2018-11-12T08:08:23.010Z,97.71
2018-11-12T08:09:27.549Z,98.47
2018-11-12T08:10:34.029Z,98.47
2018-11-12T08:11:39.567Z,98.57
2018-11-12T08:12:45.064Z,98.38
2018-11-12T08:13:49.570Z,98.28
2018-11-12T08:14:56.133Z,98.38
2018-11-12T08:16:01.597Z,97.71
2018-11-12T08:17:07.105Z,98.57
2018-11-12T08:18:11.610Z,98.57
2018-11-12T08:19:18.137Z,98.75
2018-11-12T08:20:23.647Z,98.57
2018-11-12T08:21:29.212Z,98.57
2018-11-12T08:22:33.658Z,98.75
2018-11-12T08:23:40.167Z,98.38
2018-11-12T08:24:45.825Z,98.71
2018-11-12T08:25:51.194Z,98.38
2018-11-12T08:26:55.705Z,98.47
2018-11-12T08:28:02.216Z,98.52
2018-11-12T08:29:07.732Z,98.24
2018-11-12T08:30:13.292Z,98.18
2018-11-12T08:31:17.762Z,97.85
2018-11-12T08:32:24.280Z,98.14
2018-11-12T08:33:29.803Z,98.24
2018-11-12T08:34:35.305Z,98.14
2018-11-12T08:35:39.807Z,97.85
2018-11-12T08:36:46.326Z,98.04
2018-11-12T08:37:51.841Z,97.99
2018-11-12T08:38:57.355Z,98.14
2018-11-12T08:40:01.916Z,98.04
2018-11-12T08:41:08.458Z,97.95
2018-11-12T08:42:13.887Z,98.24
2018-11-12T08:43:19.387Z,98.14
2018-11-12T08:44:23.903Z,98.04
2018-11-12T08:45:30.444Z,97.85
2018-11-12T08:46:35.928Z,98.33
2018-11-12T08:47:41.455Z,98.24
2018-11-12T08:48:46.002Z,97.66
2018-11-12T08:49:52.501Z,97.18
2018-11-12T08:50:58.014Z,96.89
2018-11-12T08:52:03.530Z,96.80
2018-11-12T08:53:07.990Z,96.80
2018-11-12T08:54:14.517Z,96.89
2018-11-12T08:55:20.076Z,96.80
2018-11-12T08:56:25.536Z,96.51
2018-11-12T08:57:30.047Z,96.42
2018-11-12T08:58:36.580Z,96.70
2018-11-12T08:59:42.163Z,96.42
2018-11-12T09:00:47.628Z,96.32
2018-11-12T09:01:52.100Z,96.89
2018-11-12T09:02:58.613Z,96.70
2018-11-12T09:04:04.210Z,96.13
2018-11-12T09:05:09.638Z,96.22
2018-11-12T09:06:14.142Z,96.32
2018-11-12T09:07:20.732Z,95.75
2018-11-12T09:08:26.187Z,95.56
2018-11-12T09:09:31.700Z,95.65
2018-11-12T09:10:36.196Z,96.51
2018-11-12T09:11:42.743Z,96.32
2018-11-12T09:12:48.257Z,95.89
2018-11-12T09:13:53.754Z,95.98
2018-11-12T09:14:58.244Z,95.61
2018-11-12T09:16:04.777Z,95.27
2018-11-12T09:17:10.282Z,95.12
2018-11-12T09:18:15.794Z,95.41
2018-11-12T09:19:20.299Z,95.61
2018-11-12T09:20:26.859Z,95.41
2018-11-12T09:21:32.345Z,95.61
2018-11-12T09:22:37.892Z,95.31
2018-11-12T09:23:42.348Z,95.41
2018-11-12T09:24:48.864Z,95.41
2018-11-12T09:25:54.378Z,95.22
2018-11-12T09:26:59.949Z,95.51
2018-11-12T09:28:04.402Z,95.79
2018-11-12T09:29:10.937Z,95.98
2018-11-12T09:30:16.429Z,95.61
2018-11-12T09:31:22.824Z,95.89
2018-11-12T09:32:26.464Z,96.37
2018-11-12T09:33:33.025Z,96.27
2018-11-12T09:34:38.489Z,96.47
2018-11-12T09:35:44.004Z,96.47
2018-11-12T09:36:48.558Z,96.27
2018-11-12T09:37:55.046Z,96.08
2018-11-12T09:39:00.540Z,96.13
2018-11-12T09:40:06.056Z,95.75
2018-11-12T09:41:10.600Z,95.46
2018-11-12T09:42:17.082Z,95.84
2018-11-12T09:43:22.594Z,95.84
2018-11-12T09:44:28.127Z,95.84
2018-11-12T09:45:32.605Z,95.36
2018-11-12T09:46:39.148Z,95.56
2018-11-12T09:47:44.696Z,95.27
2018-11-12T09:48:50.194Z,94.89
2018-11-12T09:49:54.689Z,95.56
2018-11-12T09:51:01.192Z,95.56
2018-11-12T09:52:06.698Z,95.84
2018-11-12T09:53:12.199Z,95.46
2018-11-12T09:54:16.793Z,94.60
2018-11-12T09:55:23.272Z,94.60
2018-11-12T09:56:28.770Z,94.12
2018-11-12T09:57:34.258Z,94.93
2018-11-12T09:58:38.782Z,94.45
2018-11-12T09:59:45.292Z,94.17
2018-11-12T10:00:51.048Z,94.93
2018-11-12T10:01:56.857Z,94.55
2018-11-12T10:03:01.474Z,94.93
2018-11-12T10:04:08.369Z,95.03
2018-11-12T10:05:13.833Z,94.55
2018-11-12T10:06:19.708Z,95.17
2018-11-12T10:07:24.467Z,95.03
2018-11-12T10:08:32.097Z,95.07
2018-11-12T10:09:35.807Z,94.79
2018-11-12T10:10:43.007Z,94.79
2018-11-12T10:11:47.155Z,94.69
2018-11-12T10:12:53.406Z,93.16
2018-11-12T10:14:00.075Z,93.16
2018-11-12T10:15:05.287Z,93.35
2018-11-12T10:16:10.142Z,93.26
2018-11-12T10:17:16.761Z,93.06
2018-11-12T10:18:19.030Z,93.26
2018-11-12T10:19:24.561Z,93.44
2018-11-12T10:20:29.037Z,93.54
2018-11-12T10:21:35.565Z,94.12
2018-11-12T10:22:41.065Z,94.02
2018-11-12T10:23:46.598Z,93.73
2018-11-12T10:24:51.081Z,94.07
2018-11-12T10:25:57.623Z,93.97
2018-11-12T10:27:03.124Z,94.17
2018-11-12T10:28:08.626Z,93.30
2018-11-12T10:29:13.153Z,93.01
2018-11-12T10:30:19.686Z,93.40
2018-11-12T10:31:25.176Z,93.44
2018-11-12T10:32:30.705Z,93.54
2018-11-12T10:33:35.197Z,93.35
2018-11-12T10:34:41.723Z,93.15
2018-11-12T10:35:47.233Z,92.68
2018-11-12T10:36:52.741Z,92.48
2018-11-12T10:37:57.250Z,92.58
2018-11-12T10:39:03.777Z,88.49
2018-11-12T10:40:09.288Z,90.37
2018-11-12T10:41:14.847Z,91.19
2018-11-12T10:42:19.307Z,91.09
2018-11-12T10:43:25.868Z,89.46
2018-11-12T10:44:31.363Z,88.49
2018-11-12T10:45:36.855Z,86.87
2018-11-12T10:46:41.362Z,87.44
2018-11-12T10:47:47.937Z,86.33
2018-11-12T10:48:53.408Z,87.01
2018-11-12T10:49:58.924Z,87.29
2018-11-12T10:51:05.170Z,87.29
2018-11-12T10:52:09.965Z,87.58
2018-11-12T10:53:15.465Z,87.53
2018-11-12T10:54:21.059Z,86.76
2018-11-12T10:55:25.586Z,86.38
2018-11-12T10:56:31.997Z,86.22
2018-11-12T10:57:37.526Z,83.53
2018-11-12T10:58:43.032Z,84.30
2018-11-12T10:59:47.648Z,82.86
2018-11-12T11:00:54.167Z,82.96
2018-11-12T11:01:59.597Z,82.04
2018-11-12T11:03:05.095Z,82.23
2018-11-12T11:04:09.610Z,81.61
2018-11-12T11:05:16.116Z,82.81
2018-11-12T11:06:21.643Z,81.46
2018-11-12T11:07:27.168Z,80.02
2018-11-12T11:08:31.656Z,80.27
2018-11-12T11:09:38.198Z,81.61
2018-11-12T11:10:43.718Z,82.32
2018-11-12T11:11:49.212Z,83.00
2018-11-12T11:12:53.714Z,80.69
2018-11-12T11:14:00.227Z,80.69
2018-11-12T11:15:05.757Z,80.88
2018-11-12T11:16:11.289Z,81.07
2018-11-12T11:17:15.778Z,80.73
2018-11-12T11:18:22.317Z,80.35
2018-11-12T11:19:27.875Z,79.28
2018-11-12T11:20:33.353Z,80.35
2018-11-12T11:21:37.852Z,80.06
2018-11-12T11:22:44.377Z,79.19
2018-11-12T11:23:49.906Z,80.10
2018-11-12T11:24:55.414Z,79.52
2018-11-12T11:25:59.896Z,79.81
2018-11-12T11:27:06.440Z,79.52
2018-11-12T11:28:11.934Z,80.10
2018-11-12T11:29:17.463Z,79.52
2018-11-12T11:30:21.957Z,80.00
2018-11-12T11:31:28.519Z,77.88
2018-11-12T11:32:34.024Z,78.56
2018-11-12T11:33:39.516Z,78.85
2018-11-12T11:34:44.023Z,79.90
2018-11-12T11:35:50.563Z,77.65
2018-11-12T11:36:56.065Z,77.84
2018-11-12T11:38:01.581Z,77.46
2018-11-12T11:39:06.114Z,77.65
2018-11-12T11:40:12.676Z,78.42
2018-11-12T11:41:18.192Z,78.52
2018-11-12T11:42:23.650Z,77.08
2018-11-12T11:43:28.169Z,77.36
2018-11-12T11:44:34.690Z,79.10
2018-11-12T11:45:40.195Z,79.48
2018-11-12T11:46:45.709Z,77.75
2018-11-12T11:47:50.435Z,78.56
2018-11-12T11:48:56.791Z,78.46
2018-11-12T11:50:02.261Z,77.59
2018-11-12T11:51:07.776Z,77.31
2018-11-12T11:52:12.295Z,75.96
2018-11-12T11:53:18.821Z,77.21
2018-11-12T11:54:24.317Z,77.11
2018-11-12T11:55:29.838Z,77.69
2018-11-12T11:56:34.404Z,76.82
2018-11-12T11:57:40.999Z,76.86
2018-11-12T11:58:46.401Z,77.69
2018-11-12T11:59:51.924Z,76.82
2018-11-12T12:00:56.475Z,76.44
2018-11-12T12:02:02.955Z,77.15
2018-11-12T12:03:08.509Z,77.15
2018-11-12T12:04:13.981Z,75.42
2018-11-12T12:05:18.489Z,75.23
2018-11-12T12:06:25.003Z,74.07
2018-11-12T12:07:30.547Z,74.26
2018-11-12T12:08:36.075Z,73.88
2018-11-12T12:09:40.534Z,75.65
2018-11-12T12:10:47.076Z,74.49
2018-11-12T12:11:52.604Z,74.88
2018-11-12T12:12:58.109Z,75.16
2018-11-12T12:14:02.612Z,74.01
2018-11-12T12:15:09.151Z,74.62
2018-11-12T12:16:14.650Z,73.79
2018-11-12T12:17:20.160Z,74.12
2018-11-12T12:18:24.678Z,71.30
2018-11-12T12:19:31.204Z,69.43
2018-11-12T12:20:36.712Z,66.37
2018-11-12T12:21:42.244Z,64.72
2018-11-12T12:22:46.735Z,63.82
2018-11-12T12:23:53.255Z,61.65
2018-11-12T12:24:58.856Z,56.04
2018-11-12T12:26:04.379Z,57.23
2018-11-12T12:27:08.803Z,55.29
2018-11-12T12:28:15.332Z,55.29
2018-11-12T12:29:20.859Z,54.64
2018-11-12T12:30:26.375Z,54.49
2018-11-12T12:31:30.886Z,56.47
2018-11-12T12:32:37.431Z,57.61
2018-11-12T12:33:42.929Z,57.55
2018-11-12T12:34:48.510Z,59.30
2018-11-12T12:35:53.028Z,60.59
2018-11-12T12:36:59.487Z,61.72
2018-11-12T12:38:05.011Z,61.89
2018-11-12T12:39:10.550Z,63.11
2018-11-12T12:40:15.046Z,62.98
2018-11-12T12:41:21.566Z,64.63
2018-11-12T12:42:27.078Z,64.56
2018-11-12T12:43:32.608Z,62.76
2018-11-12T12:44:37.115Z,63.53
2018-11-12T12:45:43.751Z,63.50
2018-11-12T12:46:49.140Z,62.66
2018-11-12T12:47:54.673Z,62.56
2018-11-12T12:48:59.165Z,61.69
2018-11-12T12:50:05.698Z,63.53
2018-11-12T12:51:11.220Z,63.21
2018-11-12T12:52:16.731Z,63.40
2018-11-12T12:53:21.230Z,64.05
2018-11-12T12:54:27.785Z,64.24
2018-11-12T12:55:33.343Z,65.01
2018-11-12T12:56:38.825Z,64.82
2018-11-12T12:57:43.312Z,66.24
2018-11-12T12:58:49.861Z,65.75
2018-11-12T12:59:55.371Z,66.24
2018-11-12T13:01:00.890Z,66.88
2018-11-12T13:02:05.390Z,67.27
2018-11-12T13:03:11.903Z,67.33
2018-11-12T13:04:17.423Z,67.81
2018-11-12T13:05:22.961Z,68.77
2018-11-12T13:06:27.464Z,69.23
2018-11-12T13:07:34.059Z,70.09
2018-11-12T13:08:39.507Z,69.71
2018-11-12T13:09:45.045Z,70.54
2018-11-12T13:10:49.542Z,72.33
2018-11-12T13:11:56.060Z,73.26
2018-11-12T13:13:01.571Z,73.74
2018-11-12T13:14:07.170Z,74.19
2018-11-12T13:15:11.685Z,75.98
2018-11-12T13:16:18.122Z,75.49
2018-11-12T13:17:23.654Z,77.34
2018-11-12T13:18:29.158Z,79.17
2018-11-12T13:19:33.711Z,79.07
2018-11-12T13:20:40.195Z,80.38
2018-11-12T13:21:45.715Z,80.86
2018-11-12T13:22:51.246Z,81.05
2018-11-12T13:23:55.725Z,81.53
2018-11-12T13:25:02.252Z,81.72
2018-11-12T13:26:07.771Z,82.84
2018-11-12T13:27:13.272Z,83.51
2018-11-12T13:28:17.773Z,84.27
2018-11-12T13:29:24.307Z,84.27
2018-11-12T13:30:29.857Z,84.27
2018-11-12T13:31:35.391Z,84.56
2018-11-12T13:32:39.854Z,84.47
2018-11-12T13:33:46.387Z,84.85
2018-11-12T13:34:51.911Z,85.10
2018-11-12T13:35:57.390Z,85.28
2018-11-12T13:37:01.932Z,85.10
2018-11-12T13:38:08.446Z,85.67
2018-11-12T13:39:14.005Z,85.86
2018-11-12T13:40:19.476Z,85.38
2018-11-12T13:41:23.975Z,86.54
2018-11-12T13:42:30.527Z,86.63
2018-11-12T13:43:36.013Z,87.11
2018-11-12T13:44:41.553Z,87.40
2018-11-12T13:45:46.030Z,87.40
2018-11-12T13:46:52.568Z,87.26
2018-11-12T13:47:58.072Z,87.78
2018-11-12T13:49:03.586Z,88.22
2018-11-12T13:50:08.115Z,88.70
2018-11-12T13:51:14.606Z,89.85
2018-11-12T13:52:20.113Z,89.85
2018-11-12T13:53:25.628Z,89.94
2018-11-12T13:54:30.154Z,90.23
2018-11-12T13:55:36.680Z,90.61
2018-11-12T13:56:42.173Z,90.71
2018-11-12T13:57:47.718Z,91.28
2018-11-12T13:58:52.234Z,91.09
2018-11-12T13:59:58.717Z,91.48
2018-11-12T14:01:04.260Z,91.00
2018-11-12T14:02:09.750Z,91.09
2018-11-12T14:03:14.258Z,90.90